Time,TemperatureF,DewpointF,PressureIn,WindDirection,WindDirectionDegrees,WindSpeedMPH,WindSpeedGustMPH,Humidity,HourlyPrecipIn,Conditions,Clouds,dailyrainin,SoftwareType,DateUTC
2013-02-04 00:02:00,10.4,4.3,30.03,NE,50,0.0,2.0,76,0.00,,OVC100,0.00,VWS V14.01,2013-02-04 06:02:00,
2013-02-04 00:07:00,10.4,4.3,30.03,NE,50,1.0,2.0,76,0.00,,OVC100,0.00,VWS V14.01,2013-02-04 06:07:00,
2013-02-04 00:12:00,10.4,4.1,30.03,NE,50,1.0,2.0,75,0.00,,OVC100,0.00,VWS V14.01,2013-02-04 06:12:00,
2013-02-04 00:17:00,10.4,4.1,30.03,NE,54,2.0,3.0,75,0.00,,OVC100,0.00,VWS V14.01,2013-02-04 06:17:00,
2013-02-04 00:22:00,10.3,4.0,30.03,NE,46,2.0,3.0,75,0.00,,OVC100,0.00,VWS V14.01,2013-02-04 06:22:00,
2013-02-04 00:27:00,10.3,4.0,30.03,NE,54,2.0,3.0,75,0.00,,OVC100,0.00,VWS V14.01,2013-02-04 06:27:00,
2013-02-04 00:32:00,10.2,3.9,30.03,NE,51,1.0,2.0,75,0.00,,BKN110,0.00,VWS V14.01,2013-02-04 06:32:00,
2013-02-04 00:37:00,10.2,3.9,30.03,NE,51,2.0,2.0,75,0.00,,BKN110,0.00,VWS V14.01,2013-02-04 06:37:00,
2013-02-04 00:42:00,10.1,3.8,30.03,NE,54,1.0,3.0,75,0.00,,BKN110,0.00,VWS V14.01,2013-02-04 06:42:00,
2013-02-04 00:47:00,10.0,3.7,30.03,NE,54,2.0,3.0,75,0.00,,OVC100,0.00,VWS V14.01,2013-02-04 06:47:00,
2013-02-04 00:52:00,10.0,3.7,30.03,NE,50,2.0,3.0,75,0.00,,BKN120,0.00,VWS V14.01,2013-02-04 06:52:00,
2013-02-04 00:57:00,10.0,3.7,30.03,NE,47,3.0,3.0,75,0.00,,BKN120,0.00,VWS V14.01,2013-02-04 06:57:00,
2013-02-04 01:02:00,9.9,3.6,30.03,NE,46,1.0,3.0,75,0.00,,BKN120,0.00,VWS V14.01,2013-02-04 07:02:00,
2013-02-04 01:07:00,9.8,3.5,30.03,ENE,58,2.0,4.0,75,0.00,,BKN120,0.00,VWS V14.01,2013-02-04 07:07:00,
2013-02-04 01:12:00,9.8,3.5,30.03,NE,51,2.0,4.0,75,0.00,,BKN120,0.00,VWS V14.01,2013-02-04 07:12:00,
2013-02-04 01:17:00,9.8,3.2,30.03,NE,49,2.0,4.0,74,0.00,,BKN120,0.00,VWS V14.01,2013-02-04 07:17:00,
2013-02-04 01:22:00,9.7,3.1,30.03,NE,49,2.0,4.0,74,0.00,,BKN120,0.00,VWS V14.01,2013-02-04 07:22:00,
2013-02-04 01:27:00,9.7,3.1,30.04,NE,53,2.0,4.0,74,0.00,,BKN120,0.00,VWS V14.01,2013-02-04 07:27:00,
2013-02-04 01:32:00,9.6,2.7,30.04,NE,49,0.0,2.0,73,0.00,,OVC120,0.00,VWS V14.01,2013-02-04 07:32:00,
2013-02-04 01:37:00,9.6,2.7,30.04,NE,51,3.0,3.0,73,0.00,,OVC120,0.00,VWS V14.01,2013-02-04 07:37:00,
2013-02-04 01:42:00,9.4,2.5,30.03,NE,46,2.0,4.0,73,0.00,,OVC120,0.00,VWS V14.01,2013-02-04 07:42:00,
2013-02-04 01:47:00,9.2,2.3,30.03,NE,46,2.0,4.0,73,0.00,,OVC120,0.00,VWS V14.01,2013-02-04 07:47:00,
2013-02-04 01:52:00,9.1,1.9,30.04,NE,46,2.0,4.0,72,0.00,,OVC110,0.00,VWS V14.01,2013-02-04 07:52:00,
2013-02-04 01:57:00,9.0,1.8,30.04,NE,51,1.0,5.0,72,0.00,,OVC110,0.00,VWS V14.01,2013-02-04 07:57:00,
2013-02-04 02:02:00,9.0,1.8,30.04,ENE,77,1.0,4.0,72,0.00,,OVC110,0.00,VWS V14.01,2013-02-04 08:02:00,
2013-02-04 02:07:00,8.9,1.7,30.04,NE,46,3.0,4.0,72,0.00,,OVC110,0.00,VWS V14.01,2013-02-04 08:07:00,
2013-02-04 02:12:00,8.8,1.6,30.05,NE,46,4.0,5.0,72,0.00,,OVC110,0.00,VWS V14.01,2013-02-04 08:12:00,
2013-02-04 02:17:00,8.8,1.6,30.04,NE,56,3.0,5.0,72,0.00,,OVC110,0.00,VWS V14.01,2013-02-04 08:17:00,
2013-02-04 02:22:00,8.7,0.9,30.05,NE,49,6.0,9.0,70,0.00,,OVC110,0.00,VWS V14.01,2013-02-04 08:22:00,
2013-02-04 02:27:00,8.5,0.4,30.05,NE,54,3.0,9.0,69,0.00,,OVC110,0.00,VWS V14.01,2013-02-04 08:27:00,
2013-02-04 02:32:00,8.3,-0.1,30.05,NE,54,4.0,7.0,68,0.00,,OVC110,0.00,VWS V14.01,2013-02-04 08:32:00,
2013-02-04 02:37:00,8.1,-0.6,30.05,NE,54,3.0,7.0,67,0.00,,OVC110,0.00,VWS V14.01,2013-02-04 08:37:00,
2013-02-04 02:42:00,8.0,-0.7,30.05,NE,40,3.0,7.0,67,0.00,,OVC110,0.00,VWS V14.01,2013-02-04 08:42:00,
2013-02-04 02:47:00,7.8,-0.9,30.05,NE,43,4.0,7.0,67,0.00,,OVC110,0.00,VWS V14.01,2013-02-04 08:47:00,
2013-02-04 02:52:00,7.4,-1.2,30.05,NE,43,5.0,7.0,67,0.00,,BKN110,0.00,VWS V14.01,2013-02-04 08:52:00,
2013-02-04 02:57:00,7.3,-1.7,30.05,ENE,60,5.0,8.0,66,0.00,,BKN110,0.00,VWS V14.01,2013-02-04 08:57:00,
2013-02-04 03:02:00,7.1,-1.9,30.05,ENE,59,4.0,6.0,66,0.00,,BKN110,0.00,VWS V14.01,2013-02-04 09:02:00,
2013-02-04 03:07:00,6.8,-2.1,30.05,NE,49,3.0,6.0,66,0.00,,BKN110,0.00,VWS V14.01,2013-02-04 09:07:00,
2013-02-04 03:12:00,6.6,-2.0,30.05,NE,54,3.0,6.0,67,0.00,,BKN110,0.00,VWS V14.01,2013-02-04 09:12:00,
2013-02-04 03:17:00,6.3,-2.0,30.05,NE,51,1.0,6.0,68,0.00,,OVC110,0.00,VWS V14.01,2013-02-04 09:17:00,
2013-02-04 03:22:00,6.0,-2.0,30.05,NE,51,1.0,6.0,69,0.00,,OVC110,0.00,VWS V14.01,2013-02-04 09:22:00,
2013-02-04 03:27:00,5.9,-2.1,30.05,NE,51,1.0,6.0,69,0.00,,OVC110,0.00,VWS V14.01,2013-02-04 09:27:00,
2013-02-04 03:32:00,5.8,-2.2,30.05,NE,46,4.0,4.0,69,0.00,,BKN110,0.00,VWS V14.01,2013-02-04 09:32:00,
2013-02-04 03:37:00,5.8,-2.2,30.05,NE,44,1.0,4.0,69,0.00,,BKN110,0.00,VWS V14.01,2013-02-04 09:37:00,
2013-02-04 03:42:00,5.9,-1.8,30.05,NE,46,4.0,4.0,70,0.00,,BKN110,0.00,VWS V14.01,2013-02-04 09:42:00,
2013-02-04 03:47:00,6.0,-1.7,30.06,NE,43,3.0,5.0,70,0.00,,BKN110,0.00,VWS V14.01,2013-02-04 09:47:00,
2013-02-04 03:52:00,6.1,-1.9,30.05,NE,51,3.0,6.0,69,0.00,,OVC090,0.00,VWS V14.01,2013-02-04 09:52:00,
2013-02-04 03:57:00,6.0,-1.7,30.05,NE,51,2.0,6.0,70,0.00,,OVC090,0.00,VWS V14.01,2013-02-04 09:57:00,
2013-02-04 04:02:00,5.9,-1.8,30.06,NE,43,3.0,4.0,70,0.00,,OVC090,0.00,VWS V14.01,2013-02-04 10:02:00,
2013-02-04 04:07:00,5.9,-1.8,30.06,NE,54,4.0,4.0,70,0.00,,OVC090,0.00,VWS V14.01,2013-02-04 10:07:00,
2013-02-04 04:12:00,5.8,-1.9,30.06,NE,49,2.0,6.0,70,0.00,,OVC090,0.00,VWS V14.01,2013-02-04 10:12:00,
2013-02-04 04:17:00,5.8,-1.9,30.06,NE,51,2.0,6.0,70,0.00,,OVC090,0.00,VWS V14.01,2013-02-04 10:17:00,
2013-02-04 04:22:00,5.7,-2.0,30.06,NE,46,1.0,6.0,70,0.00,,OVC090,0.00,VWS V14.01,2013-02-04 10:22:00,
2013-02-04 04:27:00,5.7,-2.0,30.06,NE,44,1.0,6.0,70,0.00,,OVC090,0.00,VWS V14.01,2013-02-04 10:27:00,
2013-02-04 04:32:00,5.6,-2.0,30.06,NE,42,2.0,4.0,70,0.00,,OVC120,0.00,VWS V14.01,2013-02-04 10:32:00,
2013-02-04 04:37:00,5.4,-2.2,30.06,NNE,20,0.0,4.0,70,0.00,,OVC110,0.00,VWS V14.01,2013-02-04 10:37:00,
2013-02-04 04:42:00,5.1,-2.5,30.06,NE,48,1.0,4.0,70,0.00,,OVC110,0.00,VWS V14.01,2013-02-04 10:42:00,
2013-02-04 04:47:00,4.7,-2.9,30.06,NNE,30,1.0,4.0,70,0.00,,OVC110,0.00,VWS V14.01,2013-02-04 10:47:00,
2013-02-04 04:52:00,4.4,-3.2,30.07,NE,54,1.0,4.0,70,0.00,,OVC110,0.00,VWS V14.01,2013-02-04 10:52:00,
2013-02-04 04:57:00,4.1,-3.5,30.07,NNE,16,2.0,4.0,70,0.00,,OVC120,0.00,VWS V14.01,2013-02-04 10:57:00,
2013-02-04 05:02:00,4.0,-3.3,30.07,NNE,30,2.0,3.0,71,0.00,,OVC110,0.00,VWS V14.01,2013-02-04 11:02:00,
2013-02-04 05:07:00,3.8,-3.5,30.07,NE,53,1.0,3.0,71,0.00,,OVC110,0.00,VWS V14.01,2013-02-04 11:07:00,
2013-02-04 05:12:00,3.5,-3.8,30.07,ENE,65,0.0,4.0,71,0.00,,OVC110,0.00,VWS V14.01,2013-02-04 11:12:00,
2013-02-04 05:17:00,3.2,-4.1,30.06,ENE,60,2.0,5.0,71,0.00,,OVC120,0.00,VWS V14.01,2013-02-04 11:17:00,
2013-02-04 05:22:00,2.9,-4.4,30.06,ENE,63,1.0,5.0,71,0.00,,OVC110,0.00,VWS V14.01,2013-02-04 11:22:00,
2013-02-04 05:27:00,2.7,-4.6,30.07,NE,46,2.0,5.0,71,0.00,,OVC110,0.00,VWS V14.01,2013-02-04 11:27:00,
2013-02-04 05:32:00,2.5,-4.4,30.07,NE,49,2.0,5.0,72,0.00,,OVC090,0.00,VWS V14.01,2013-02-04 11:32:00,
2013-02-04 05:37:00,2.2,-4.7,30.07,NE,47,3.0,5.0,72,0.00,,OVC110,0.00,VWS V14.01,2013-02-04 11:37:00,
2013-02-04 05:42:00,2.0,-4.9,30.07,NE,53,1.0,5.0,72,0.00,,OVC110,0.00,VWS V14.01,2013-02-04 11:42:00,
2013-02-04 05:47:00,1.9,-5.0,30.07,NE,47,1.0,5.0,72,0.00,,OVC110,0.00,VWS V14.01,2013-02-04 11:47:00,
2013-02-04 05:52:00,1.8,-4.8,30.08,NE,41,1.0,5.0,73,0.00,,OVC090,0.00,VWS V14.01,2013-02-04 11:52:00,
2013-02-04 05:57:00,1.8,-4.8,30.08,NE,36,1.0,5.0,73,0.00,,OVC090,0.00,VWS V14.01,2013-02-04 11:57:00,
2013-02-04 06:02:00,1.8,-4.8,30.09,NNE,18,2.0,4.0,73,0.00,,OVC090,0.00,VWS V14.01,2013-02-04 12:02:00,
2013-02-04 06:07:00,1.9,-4.7,30.09,NE,54,0.0,4.0,73,0.00,,OVC090,0.00,VWS V14.01,2013-02-04 12:07:00,
2013-02-04 06:12:00,1.8,-4.8,30.08,NNE,33,0.0,5.0,73,0.00,,OVC090,0.00,VWS V14.01,2013-02-04 12:12:00,
2013-02-04 06:17:00,1.8,-4.8,30.08,NE,35,1.0,5.0,73,0.00,,OVC090,0.00,VWS V14.01,2013-02-04 12:17:00,
2013-02-04 06:22:00,1.8,-4.8,30.08,NE,37,0.0,5.0,73,0.00,,OVC090,0.00,VWS V14.01,2013-02-04 12:22:00,
2013-02-04 06:27:00,1.7,-4.9,30.09,NE,53,0.0,5.0,73,0.00,,OVC090,0.00,VWS V14.01,2013-02-04 12:27:00,
2013-02-04 06:32:00,1.6,-5.0,30.09,NNW,342,1.0,4.0,73,0.00,,OVC090,0.00,VWS V14.01,2013-02-04 12:32:00,
2013-02-04 06:37:00,1.3,-5.3,30.09,NE,42,0.0,4.0,73,0.00,,OVC120,0.00,VWS V14.01,2013-02-04 12:37:00,
2013-02-04 06:42:00,1.1,-5.8,30.09,NNE,16,0.0,4.0,72,0.00,,OVC120,0.00,VWS V14.01,2013-02-04 12:42:00,
2013-02-04 06:47:00,0.8,-5.8,30.09,NNW,346,1.0,4.0,73,0.00,,OVC120,0.00,VWS V14.01,2013-02-04 12:47:00,
2013-02-04 06:52:00,0.5,-6.1,30.09,NNE,20,0.0,4.0,73,0.00,,BKN110,0.00,VWS V14.01,2013-02-04 12:52:00,
2013-02-04 06:57:00,0.2,-6.4,30.10,ENE,65,0.0,4.0,73,0.00,,OVC090,0.00,VWS V14.01,2013-02-04 12:57:00,
2013-02-04 07:02:00,0.1,-6.6,30.10,North,6,0.0,2.0,73,0.00,,BKN110,0.00,VWS V14.01,2013-02-04 13:02:00,
2013-02-04 07:07:00,-0.2,-6.8,30.09,North,349,0.0,3.0,73,0.00,,BKN110,0.00,VWS V14.01,2013-02-04 13:07:00,
2013-02-04 07:12:00,-0.5,-7.1,30.09,NE,40,0.0,3.0,73,0.00,,BKN110,0.00,VWS V14.01,2013-02-04 13:12:00,
2013-02-04 07:17:00,-0.7,-7.0,30.10,North,8,0.0,3.0,74,0.00,,BKN110,0.00,VWS V14.01,2013-02-04 13:17:00,
2013-02-04 07:22:00,-0.8,-7.1,30.09,NNE,19,1.0,3.0,74,0.00,,BKN110,0.00,VWS V14.01,2013-02-04 13:22:00,
2013-02-04 07:27:00,-1.0,-7.3,30.09,NE,41,0.0,4.0,74,0.00,,BKN110,0.00,VWS V14.01,2013-02-04 13:27:00,
2013-02-04 07:32:00,-1.1,-7.4,30.09,NNE,29,0.0,2.0,74,0.00,,BKN120,0.00,VWS V14.01,2013-02-04 13:32:00,
2013-02-04 07:36:00,-1.3,-7.3,30.09,NNW,333,0.0,2.0,75,0.00,,BKN120,0.00,VWS V14.01,2013-02-04 13:36:00,
2013-02-04 07:41:00,-1.4,-7.4,30.09,North,359,0.0,2.0,75,0.00,,BKN120,0.00,VWS V14.01,2013-02-04 13:41:00,
2013-02-04 07:46:00,-1.4,-7.4,30.09,NE,40,1.0,2.0,75,0.00,,BKN120,0.00,VWS V14.01,2013-02-04 13:46:00,
2013-02-04 07:51:00,-1.4,-7.4,30.09,NE,47,1.0,2.0,75,0.00,,BKN110,0.00,VWS V14.01,2013-02-04 13:51:00,
2013-02-04 07:57:00,-1.4,-7.4,30.09,NE,49,0.0,2.0,75,0.00,,BKN120,0.00,VWS V14.01,2013-02-04 13:57:00,
2013-02-04 08:02:00,-1.4,-7.4,30.09,NE,51,0.0,2.0,75,0.00,,BKN110,0.00,VWS V14.01,2013-02-04 14:02:00,
2013-02-04 08:07:00,-1.2,-7.2,30.09,NE,42,1.0,2.0,75,0.00,,BKN110,0.00,VWS V14.01,2013-02-04 14:07:00,
2013-02-04 08:12:00,-1.1,-7.1,30.09,NE,49,0.0,2.0,75,0.00,,BKN110,0.00,VWS V14.01,2013-02-04 14:12:00,
2013-02-04 08:17:00,-1.0,-7.0,30.09,NE,56,0.0,2.0,75,0.00,,BKN120,0.00,VWS V14.01,2013-02-04 14:17:00,
2013-02-04 08:22:00,-0.8,-7.1,30.09,NE,49,1.0,2.0,74,0.00,,BKN110,0.00,VWS V14.01,2013-02-04 14:22:00,
2013-02-04 08:27:00,-0.7,-7.0,30.10,NE,55,2.0,2.0,74,0.00,,BKN110,0.00,VWS V14.01,2013-02-04 14:27:00,
2013-02-04 08:32:00,-0.6,-6.9,30.10,NE,54,2.0,3.0,74,0.00,,SCT110,0.00,VWS V14.01,2013-02-04 14:32:00,
2013-02-04 08:37:00,-0.6,-7.2,30.10,NE,46,1.0,3.0,73,0.00,,SCT110,0.00,VWS V14.01,2013-02-04 14:37:00,
2013-02-04 08:41:00,-0.4,-7.0,30.10,NE,53,2.0,3.0,73,0.00,,SCT110,0.00,VWS V14.01,2013-02-04 14:41:00,
2013-02-04 08:46:00,-0.1,-6.6,30.10,NE,51,1.0,3.0,73,0.00,,SCT110,0.00,VWS V14.01,2013-02-04 14:46:00,
2013-02-04 08:51:00,0.1,-6.8,30.10,NE,51,1.0,3.0,72,0.00,,SCT120,0.00,VWS V14.01,2013-02-04 14:51:00,
2013-02-04 08:56:00,0.1,-7.1,30.11,NE,47,2.0,3.0,71,0.00,,SCT120,0.00,VWS V14.01,2013-02-04 14:56:00,
2013-02-04 09:01:00,0.2,-7.0,30.11,NE,49,2.0,3.0,71,0.00,,SCT120,0.00,VWS V14.01,2013-02-04 15:01:00,
2013-02-04 09:06:00,0.3,-6.9,30.10,NE,53,2.0,3.0,71,0.00,,SCT120,0.00,VWS V14.01,2013-02-04 15:06:00,
2013-02-04 09:11:00,0.6,-6.6,30.10,NE,56,1.0,3.0,71,0.00,,SCT120,0.00,VWS V14.01,2013-02-04 15:11:00,
2013-02-04 09:16:00,0.7,-6.8,30.11,ENE,59,1.0,3.0,70,0.00,,SCT110,0.00,VWS V14.01,2013-02-04 15:16:00,
2013-02-04 09:21:00,1.0,-6.5,30.11,NE,47,1.0,3.0,70,0.00,,SCT120,0.00,VWS V14.01,2013-02-04 15:21:00,
2013-02-04 09:26:00,1.3,-6.2,30.11,NE,51,1.0,3.0,70,0.00,,SCT120,0.00,VWS V14.01,2013-02-04 15:26:00,
2013-02-04 09:31:00,1.4,-6.4,30.11,NE,51,2.0,3.0,69,0.00,,SCT095,0.00,VWS V14.01,2013-02-04 15:31:00,
2013-02-04 09:36:00,1.6,-6.5,30.11,NE,51,1.0,3.0,68,0.00,,CLR,0.00,VWS V14.01,2013-02-04 15:36:00,
2013-02-04 09:41:00,1.9,-6.2,30.11,NE,43,1.0,3.0,68,0.00,,CLR,0.00,VWS V14.01,2013-02-04 15:41:00,
2013-02-04 09:46:00,2.1,-6.3,30.11,NE,43,1.0,3.0,67,0.00,,CLR,0.00,VWS V14.01,2013-02-04 15:46:00,
2013-02-04 09:51:00,2.3,-6.1,30.11,NE,44,1.0,3.0,67,0.00,,SCT080,0.00,VWS V14.01,2013-02-04 15:51:00,
2013-02-04 09:56:00,2.2,-6.5,30.11,NE,53,0.0,3.0,66,0.00,,SCT095,0.00,VWS V14.01,2013-02-04 15:56:00,
2013-02-04 10:01:00,2.5,-5.9,30.11,NE,51,0.0,1.0,67,0.00,,SCT080,0.00,VWS V14.01,2013-02-04 16:01:00,
2013-02-04 10:06:00,2.9,-5.9,30.11,NE,51,1.0,1.0,66,0.00,,SCT080,0.00,VWS V14.01,2013-02-04 16:06:00,
2013-02-04 10:11:00,3.3,-5.8,30.11,NE,51,0.0,1.0,65,0.00,,SCT080,0.00,VWS V14.01,2013-02-04 16:11:00,
2013-02-04 10:16:00,3.6,-5.8,30.11,NE,51,1.0,1.0,64,0.00,,SCT095,0.00,VWS V14.01,2013-02-04 16:16:00,
2013-02-04 10:21:00,3.8,-5.6,30.11,ENE,61,1.0,1.0,64,0.00,,SCT080,0.00,VWS V14.01,2013-02-04 16:21:00,
2013-02-04 10:26:00,4.1,-5.4,30.12,ENE,77,1.0,1.0,64,0.00,,SCT080,0.00,VWS V14.01,2013-02-04 16:26:00,
2013-02-04 10:31:00,4.4,-5.4,30.11,East,98,0.0,1.0,63,0.00,,OVC080,0.00,VWS V14.01,2013-02-04 16:31:00,
2013-02-04 10:36:00,5.2,-4.3,30.12,East,97,0.0,1.0,64,0.00,,OVC080,0.00,VWS V14.01,2013-02-04 16:36:00,
2013-02-04 10:41:00,5.9,-4.3,30.12,SW,225,1.0,1.0,62,0.00,,OVC080,0.00,VWS V14.01,2013-02-04 16:41:00,
2013-02-04 10:46:00,6.0,-4.6,30.12,SSW,212,1.0,1.0,61,0.00,,OVC080,0.00,VWS V14.01,2013-02-04 16:46:00,
2013-02-04 10:51:00,6.1,-4.4,30.12,SW,214,0.0,1.0,61,0.00,,OVC080,0.00,VWS V14.01,2013-02-04 16:51:00,
2013-02-04 10:56:00,6.3,-4.3,30.12,SW,235,1.0,1.0,61,0.00,,OVC080,0.00,VWS V14.01,2013-02-04 16:56:00,
2013-02-04 11:01:00,6.6,-3.6,30.11,SSW,205,1.0,2.0,62,0.00,,OVC080,0.00,VWS V14.01,2013-02-04 17:01:00,
2013-02-04 11:06:00,6.9,-3.7,30.11,SE,145,0.0,2.0,61,0.00,,OVC080,0.00,VWS V14.01,2013-02-04 17:06:00,
2013-02-04 11:11:00,7.1,-3.2,30.11,SSE,156,0.0,2.0,62,0.00,,OVC080,0.00,VWS V14.01,2013-02-04 17:11:00,
2013-02-04 11:16:00,7.2,-3.8,30.10,ESE,108,0.0,2.0,60,0.00,,OVC080,0.00,VWS V14.01,2013-02-04 17:16:00,
2013-02-04 11:21:00,6.9,-4.0,30.11,East,101,0.0,2.0,60,0.00,,OVC080,0.00,VWS V14.01,2013-02-04 17:21:00,
2013-02-04 11:26:00,7.0,-3.9,30.10,West,274,1.0,2.0,60,0.00,,OVC080,0.00,VWS V14.01,2013-02-04 17:26:00,
2013-02-04 11:31:00,7.3,-3.3,30.10,SSW,192,1.0,1.0,61,0.00,,OVC080,0.00,VWS V14.01,2013-02-04 17:31:00,
2013-02-04 11:36:00,7.7,-2.9,30.09,WNW,283,0.0,2.0,61,0.00,,OVC080,0.00,VWS V14.01,2013-02-04 17:36:00,
2013-02-04 11:41:00,8.0,-2.7,30.09,WSW,253,0.0,2.0,61,0.00,,OVC080,0.00,VWS V14.01,2013-02-04 17:41:00,
2013-02-04 11:46:00,8.2,-2.5,30.09,SSW,196,0.0,2.0,61,0.00,,OVC080,0.00,VWS V14.01,2013-02-04 17:46:00,
2013-02-04 11:51:00,8.5,-2.5,30.09,WSW,250,1.0,2.0,60,0.00,,OVC080,0.00,VWS V14.01,2013-02-04 17:51:00,
2013-02-04 11:56:00,8.2,-2.8,30.09,SW,216,1.0,2.0,60,0.00,,OVC080,0.00,VWS V14.01,2013-02-04 17:56:00,
2013-02-04 12:01:00,8.4,-2.6,30.08,South,172,0.0,2.0,60,0.00,,OVC080,0.00,VWS V14.01,2013-02-04 18:01:00,
2013-02-04 12:06:00,8.9,-2.5,30.07,ESE,119,0.0,2.0,59,0.00,,OVC080,0.00,VWS V14.01,2013-02-04 18:06:00,
2013-02-04 12:11:00,9.4,-1.7,30.07,WSW,258,0.0,2.0,60,0.00,,OVC080,0.00,VWS V14.01,2013-02-04 18:11:00,
2013-02-04 12:16:00,9.2,-2.6,30.07,West,259,0.0,2.0,58,0.00,,OVC080,0.00,VWS V14.01,2013-02-04 18:16:00,
2013-02-04 12:21:00,9.2,-2.2,30.07,WSW,253,1.0,2.0,59,0.00,,OVC080,0.00,VWS V14.01,2013-02-04 18:21:00,
2013-02-04 12:26:00,9.2,-1.9,30.07,West,266,1.0,2.0,60,0.00,,OVC080,0.00,VWS V14.01,2013-02-04 18:26:00,
2013-02-04 12:31:00,8.9,-2.5,30.07,WSW,252,1.0,2.0,59,0.00,,OVC080,0.00,VWS V14.01,2013-02-04 18:31:00,
2013-02-04 12:36:00,9.1,-2.0,30.06,SW,235,1.0,2.0,60,0.00,,OVC080,0.00,VWS V14.01,2013-02-04 18:36:00,
2013-02-04 12:41:00,9.3,-2.1,30.06,SW,219,0.0,2.0,59,0.00,,OVC080,0.00,VWS V14.01,2013-02-04 18:41:00,
2013-02-04 12:46:00,9.6,-1.8,30.06,WSW,240,0.0,2.0,59,0.00,,OVC080,0.00,VWS V14.01,2013-02-04 18:46:00,
2013-02-04 12:51:00,9.4,-2.4,30.06,SW,217,0.0,2.0,58,0.00,,OVC080,0.00,VWS V14.01,2013-02-04 18:51:00,
2013-02-04 12:56:00,9.5,-1.9,30.05,SW,229,0.0,2.0,59,0.00,,OVC080,0.00,VWS V14.01,2013-02-04 18:56:00,
2013-02-04 13:01:00,9.9,-1.5,30.05,SW,231,1.0,2.0,59,0.00,,OVC080,0.00,VWS V14.01,2013-02-04 19:01:00,
2013-02-04 13:06:00,9.7,-2.1,30.05,WSW,239,0.0,4.0,58,0.00,,OVC080,0.00,VWS V14.01,2013-02-04 19:06:00,
2013-02-04 13:11:00,9.7,-2.1,30.05,SW,222,1.0,4.0,58,0.00,,OVC080,0.00,VWS V14.01,2013-02-04 19:11:00,
2013-02-04 13:16:00,9.9,-1.5,30.05,SSW,212,1.0,4.0,59,0.00,,OVC080,0.00,VWS V14.01,2013-02-04 19:16:00,
2013-02-04 13:21:00,10.4,-1.1,30.04,WSW,250,0.0,4.0,59,0.00,,OVC080,0.00,VWS V14.01,2013-02-04 19:21:00,
2013-02-04 13:26:00,10.3,-1.5,30.04,SW,235,0.0,4.0,58,0.00,,OVC080,0.00,VWS V14.01,2013-02-04 19:26:00,
2013-02-04 13:31:00,10.6,-0.5,30.04,SW,225,1.0,3.0,60,0.00,,OVC080,0.00,VWS V14.01,2013-02-04 19:31:00,
2013-02-04 13:36:00,10.8,-1.1,30.03,SW,216,1.0,3.0,58,0.00,,OVC080,0.00,VWS V14.01,2013-02-04 19:36:00,
2013-02-04 13:41:00,11.0,-0.5,30.02,WSW,248,1.0,3.0,59,0.00,,OVC080,0.00,VWS V14.01,2013-02-04 19:41:00,
2013-02-04 13:46:00,11.2,0.0,30.02,WSW,239,1.0,3.0,60,0.00,,OVC080,0.00,VWS V14.01,2013-02-04 19:46:00,
2013-02-04 13:51:00,11.1,-0.4,30.03,West,280,3.0,5.0,59,0.00,,OVC080,0.00,VWS V14.01,2013-02-04 19:51:00,
2013-02-04 13:56:00,10.7,-1.2,30.03,WNW,284,2.0,6.0,58,0.00,,OVC080,0.00,VWS V14.01,2013-02-04 19:56:00,
2013-02-04 14:01:00,10.6,-0.9,30.03,West,277,4.0,7.0,59,0.00,,OVC080,0.00,VWS V14.01,2013-02-04 20:01:00,
2013-02-04 14:06:00,10.6,-0.9,30.03,West,263,4.0,7.0,59,0.00,,OVC080,0.00,VWS V14.01,2013-02-04 20:06:00,
2013-02-04 14:11:00,10.7,-0.8,30.04,West,274,1.0,7.0,59,0.00,,OVC080,0.00,VWS V14.01,2013-02-04 20:11:00,
2013-02-04 14:16:00,10.7,-1.5,30.04,West,278,5.0,7.0,57,0.00,,OVC080,0.00,VWS V14.01,2013-02-04 20:16:00,
2013-02-04 14:21:00,10.9,-1.0,30.04,West,262,4.0,7.0,58,0.00,,OVC080,0.00,VWS V14.01,2013-02-04 20:21:00,
2013-02-04 14:26:00,10.9,-1.0,30.04,NW,309,2.0,7.0,58,0.00,,OVC080,0.00,VWS V14.01,2013-02-04 20:26:00,
2013-02-04 14:31:00,11.0,-0.9,30.03,West,260,3.0,4.0,58,0.00,,OVC080,0.00,VWS V14.01,2013-02-04 20:31:00,
2013-02-04 14:36:00,11.0,-0.9,30.03,West,270,2.0,6.0,58,0.00,,OVC080,0.00,VWS V14.01,2013-02-04 20:36:00,
2013-02-04 14:41:00,10.9,-1.0,30.03,WSW,241,1.0,6.0,58,0.00,,OVC080,0.00,VWS V14.01,2013-02-04 20:41:00,
2013-02-04 14:46:00,10.9,-1.0,30.03,West,278,2.0,6.0,58,0.00,,OVC080,0.00,VWS V14.01,2013-02-04 20:46:00,
2013-02-04 14:51:00,11.3,0.1,30.03,West,271,1.0,6.0,60,0.00,,OVC080,0.00,VWS V14.01,2013-02-04 20:51:00,
2013-02-04 14:56:00,11.8,-0.1,30.03,WSW,250,1.0,6.0,58,0.00,,OVC080,0.00,VWS V14.01,2013-02-04 20:56:00,
2013-02-04 15:01:00,12.1,0.2,30.02,WSW,242,3.0,4.0,58,0.00,,OVC080,0.00,VWS V14.01,2013-02-04 21:01:00,
2013-02-04 15:06:00,12.3,0.3,30.02,West,277,2.0,4.0,58,0.00,,OVC080,0.00,VWS V14.01,2013-02-04 21:06:00,
2013-02-04 15:11:00,12.5,0.5,30.02,West,262,1.0,4.0,58,0.00,,OVC080,0.00,VWS V14.01,2013-02-04 21:11:00,
2013-02-04 15:16:00,12.5,0.2,30.02,West,269,3.0,5.0,57,0.00,,OVC080,0.00,VWS V14.01,2013-02-04 21:16:00,
2013-02-04 15:21:00,12.0,0.1,30.02,West,264,1.0,5.0,58,0.00,,OVC080,0.00,VWS V14.01,2013-02-04 21:21:00,
2013-02-04 15:26:00,12.2,0.6,30.02,WSW,245,1.0,5.0,59,0.00,,OVC080,0.00,VWS V14.01,2013-02-04 21:26:00,
2013-02-04 15:31:00,12.3,0.3,30.02,SW,233,1.0,2.0,58,0.00,,BKN080,0.00,VWS V14.01,2013-02-04 21:31:00,
2013-02-04 15:36:00,12.3,0.3,30.01,SW,224,1.0,2.0,58,0.00,,SCT080,0.00,VWS V14.01,2013-02-04 21:36:00,
2013-02-04 15:41:00,12.3,0.3,30.00,SW,222,0.0,2.0,58,0.00,,SCT080,0.00,VWS V14.01,2013-02-04 21:41:00,
2013-02-04 15:46:00,12.2,-0.1,30.00,SW,227,0.0,2.0,57,0.00,,SCT080,0.00,VWS V14.01,2013-02-04 21:46:00,
2013-02-04 15:51:00,12.2,0.3,30.00,SW,217,2.0,2.0,58,0.00,,CLR,0.00,VWS V14.01,2013-02-04 21:51:00,
2013-02-04 15:56:00,12.1,0.2,30.00,SSW,206,0.0,2.0,58,0.00,,BKN080,0.00,VWS V14.01,2013-02-04 21:56:00,
2013-02-04 16:01:00,12.2,0.3,30.00,SSW,205,0.0,0.0,58,0.00,,CLR,0.00,VWS V14.01,2013-02-04 22:01:00,
2013-02-04 16:06:00,12.3,0.3,29.99,SSW,211,0.0,1.0,58,0.00,,CLR,0.00,VWS V14.01,2013-02-04 22:06:00,
2013-02-04 16:11:00,12.3,0.7,30.00,WSW,252,1.0,1.0,59,0.00,,CLR,0.00,VWS V14.01,2013-02-04 22:11:00,
2013-02-04 16:16:00,12.1,0.5,30.00,West,262,1.0,2.0,59,0.00,,CLR,0.00,VWS V14.01,2013-02-04 22:16:00,
2013-02-04 16:21:00,11.9,0.3,30.00,WSW,252,1.0,3.0,59,0.00,,CLR,0.00,VWS V14.01,2013-02-04 22:21:00,
2013-02-04 16:26:00,11.8,0.2,29.99,West,274,1.0,3.0,59,0.00,,CLR,0.00,VWS V14.01,2013-02-04 22:26:00,
2013-02-04 16:31:00,11.7,0.2,29.99,West,262,1.0,2.0,59,0.00,,CLR,0.00,VWS V14.01,2013-02-04 22:31:00,
2013-02-04 16:36:00,11.6,0.4,29.99,West,274,1.0,2.0,60,0.00,,CLR,0.00,VWS V14.01,2013-02-04 22:36:00,
2013-02-04 16:41:00,11.5,0.3,30.00,WSW,252,1.0,2.0,60,0.00,,CLR,0.00,VWS V14.01,2013-02-04 22:41:00,
2013-02-04 16:46:00,11.4,0.2,29.99,West,262,1.0,2.0,60,0.00,,CLR,0.00,VWS V14.01,2013-02-04 22:46:00,
2013-02-04 16:51:00,11.4,0.2,29.99,West,270,0.0,2.0,60,0.00,,CLR,0.00,VWS V14.01,2013-02-04 22:51:00,
2013-02-04 16:56:00,11.3,0.5,29.99,West,260,1.0,2.0,61,0.00,,CLR,0.00,VWS V14.01,2013-02-04 22:56:00,
2013-02-04 17:01:00,11.2,0.4,29.99,West,277,1.0,2.0,61,0.00,,CLR,0.00,VWS V14.01,2013-02-04 23:01:00,
2013-02-04 17:06:00,11.2,0.4,29.99,WNW,285,1.0,2.0,61,0.00,,CLR,0.00,VWS V14.01,2013-02-04 23:06:00,
2013-02-04 17:11:00,11.1,0.6,29.98,WSW,251,1.0,3.0,62,0.00,,CLR,0.00,VWS V14.01,2013-02-04 23:11:00,
2013-02-04 17:16:00,11.1,0.6,29.98,WSW,252,0.0,3.0,62,0.00,,CLR,0.00,VWS V14.01,2013-02-04 23:16:00,
2013-02-04 17:21:00,11.0,0.5,29.98,WSW,253,0.0,3.0,62,0.00,,CLR,0.00,VWS V14.01,2013-02-04 23:21:00,
2013-02-04 17:26:00,11.0,0.5,29.98,WSW,253,1.0,3.0,62,0.00,,CLR,0.00,VWS V14.01,2013-02-04 23:26:00,
2013-02-04 17:31:00,11.0,0.5,29.98,West,264,0.0,1.0,62,0.00,,CLR,0.00,VWS V14.01,2013-02-04 23:31:00,
2013-02-04 17:36:00,10.9,0.4,29.98,WSW,256,0.0,1.0,62,0.00,,CLR,0.00,VWS V14.01,2013-02-04 23:36:00,
2013-02-04 17:41:00,10.7,0.6,29.98,WSW,256,0.0,1.0,63,0.00,,CLR,0.00,VWS V14.01,2013-02-04 23:41:00,
2013-02-04 17:46:00,10.6,0.5,29.98,WSW,255,0.0,1.0,63,0.00,,CLR,0.00,VWS V14.01,2013-02-04 23:46:00,
2013-02-04 17:51:00,10.5,0.8,29.98,WSW,256,0.0,1.0,64,0.00,,CLR,0.00,VWS V14.01,2013-02-04 23:51:00,
2013-02-04 17:56:00,10.4,0.6,29.97,WSW,255,0.0,1.0,64,0.00,,CLR,0.00,VWS V14.01,2013-02-04 23:56:00,
2013-02-04 18:01:00,10.4,1.0,29.97,SSW,204,0.0,1.0,65,0.00,,CLR,0.00,VWS V14.01,2013-02-05 00:01:00,
2013-02-04 18:06:00,10.3,0.9,29.96,SSW,204,0.0,1.0,65,0.00,,CLR,0.00,VWS V14.01,2013-02-05 00:06:00,
2013-02-04 18:11:00,10.2,0.8,29.96,SSW,204,0.0,1.0,65,0.00,,CLR,0.00,VWS V14.01,2013-02-05 00:11:00,
2013-02-04 18:16:00,10.2,1.1,29.95,South,169,2.0,2.0,66,0.00,,CLR,0.00,VWS V14.01,2013-02-05 00:16:00,
2013-02-04 18:21:00,10.2,1.1,29.95,SSW,207,1.0,2.0,66,0.00,,CLR,0.00,VWS V14.01,2013-02-05 00:21:00,
2013-02-04 18:26:00,10.3,1.2,29.96,SSW,194,0.0,2.0,66,0.00,,CLR,0.00,VWS V14.01,2013-02-05 00:26:00,
2013-02-04 18:31:00,10.4,1.3,29.95,SSW,194,0.0,0.0,66,0.00,,CLR,0.00,VWS V14.01,2013-02-05 00:31:00,
2013-02-04 18:36:00,10.3,1.2,29.95,SSW,194,0.0,1.0,66,0.00,,CLR,0.00,VWS V14.01,2013-02-05 00:36:00,
2013-02-04 18:41:00,10.2,1.1,29.95,SE,145,0.0,1.0,66,0.00,,CLR,0.00,VWS V14.01,2013-02-05 00:41:00,
2013-02-04 18:46:00,10.2,1.4,29.95,SE,145,0.0,1.0,67,0.00,,CLR,0.00,VWS V14.01,2013-02-05 00:46:00,
2013-02-04 18:51:00,10.1,1.3,29.95,SE,141,1.0,1.0,67,0.00,,CLR,0.00,VWS V14.01,2013-02-05 00:51:00,
2013-02-04 18:56:00,10.1,1.3,29.94,SE,132,2.0,2.0,67,0.00,,CLR,0.00,VWS V14.01,2013-02-05 00:56:00,
2013-02-04 19:01:00,10.1,1.3,29.94,SE,140,0.0,1.0,67,0.00,,CLR,0.00,VWS V14.01,2013-02-05 01:01:00,
2013-02-04 19:06:00,10.0,1.2,29.94,SE,145,1.0,2.0,67,0.00,,CLR,0.00,VWS V14.01,2013-02-05 01:06:00,
2013-02-04 19:11:00,10.0,1.2,29.94,SSE,156,1.0,2.0,67,0.00,,CLR,0.00,VWS V14.01,2013-02-05 01:11:00,
2013-02-04 19:16:00,10.0,1.2,29.94,SSE,147,2.0,2.0,67,0.00,,CLR,0.00,VWS V14.01,2013-02-05 01:16:00,
2013-02-04 19:21:00,10.1,1.3,29.94,SSE,162,1.0,2.0,67,0.00,,CLR,0.00,VWS V14.01,2013-02-05 01:21:00,
2013-02-04 19:26:00,10.1,1.3,29.93,SE,143,3.0,3.0,67,0.00,,CLR,0.00,VWS V14.01,2013-02-05 01:26:00,
2013-02-04 19:31:00,10.1,1.3,29.92,SSE,163,0.0,3.0,67,0.00,,SCT120,0.00,VWS V14.01,2013-02-05 01:31:00,
2013-02-04 19:36:00,10.1,1.3,29.93,South,191,1.0,3.0,67,0.00,,SCT120,0.00,VWS V14.01,2013-02-05 01:36:00,
2013-02-04 19:41:00,10.2,1.8,29.92,SSE,165,1.0,3.0,68,0.00,,SCT120,0.00,VWS V14.01,2013-02-05 01:41:00,
2013-02-04 19:46:00,10.3,1.9,29.92,SSW,205,2.0,6.0,68,0.00,,SCT120,0.00,VWS V14.01,2013-02-05 01:46:00,
2013-02-04 19:51:00,10.3,1.9,29.92,South,191,2.0,6.0,68,0.00,,BKN110,0.00,VWS V14.01,2013-02-05 01:51:00,
2013-02-04 19:56:00,10.4,2.0,29.92,SSE,166,1.0,6.0,68,0.00,,SCT120,0.00,VWS V14.01,2013-02-05 01:56:00,
2013-02-04 20:01:00,10.5,2.0,29.91,SSE,152,1.0,4.0,68,0.00,,BKN110,0.00,VWS V14.01,2013-02-05 02:01:00,
2013-02-04 20:06:00,10.6,2.5,29.91,SSE,165,2.0,4.0,69,0.00,,BKN110,0.00,VWS V14.01,2013-02-05 02:06:00,
2013-02-04 20:11:00,10.7,2.5,29.91,SE,137,1.0,4.0,69,0.00,,BKN110,0.00,VWS V14.01,2013-02-05 02:11:00,
2013-02-04 20:16:00,10.7,2.5,29.91,South,171,1.0,4.0,69,0.00,,SCT120,0.00,VWS V14.01,2013-02-05 02:16:00,
2013-02-04 20:21:00,10.7,2.5,29.91,SSW,195,2.0,5.0,69,0.00,,BKN110,0.00,VWS V14.01,2013-02-05 02:21:00,
2013-02-04 20:26:00,10.8,2.6,29.91,SE,138,1.0,5.0,69,0.00,,BKN110,0.00,VWS V14.01,2013-02-05 02:26:00,
2013-02-04 20:31:00,10.9,2.7,29.91,SE,127,1.0,3.0,69,0.00,,OVC110,0.00,VWS V14.01,2013-02-05 02:31:00,
2013-02-04 20:36:00,10.9,3.0,29.91,SSW,194,2.0,4.0,70,0.00,,OVC110,0.00,VWS V14.01,2013-02-05 02:36:00,
2013-02-04 20:41:00,11.0,2.8,29.91,SSW,206,1.0,4.0,69,0.00,,OVC110,0.00,VWS V14.01,2013-02-05 02:41:00,
2013-02-04 20:46:00,11.1,2.9,29.91,SW,235,1.0,5.0,69,0.00,,OVC110,0.00,VWS V14.01,2013-02-05 02:46:00,
2013-02-04 20:51:00,11.1,2.9,29.91,SSW,211,3.0,5.0,69,0.00,,OVC110,0.00,VWS V14.01,2013-02-05 02:51:00,
2013-02-04 20:56:00,11.2,3.3,29.91,SSW,212,1.0,5.0,70,0.00,,OVC110,0.00,VWS V14.01,2013-02-05 02:56:00,
2013-02-04 21:01:00,11.3,3.4,29.91,South,176,1.0,2.0,70,0.00,,OVC080,0.00,VWS V14.01,2013-02-05 03:01:00,
2013-02-04 21:06:00,11.3,3.4,29.90,South,191,1.0,3.0,70,0.00,,OVC080,0.00,VWS V14.01,2013-02-05 03:06:00,
2013-02-04 21:11:00,11.4,3.5,29.90,SW,222,2.0,4.0,70,0.00,,OVC080,0.00,VWS V14.01,2013-02-05 03:11:00,
2013-02-04 21:16:00,11.4,3.5,29.90,SSW,205,3.0,7.0,70,0.00,,OVC110,0.00,VWS V14.01,2013-02-05 03:16:00,
2013-02-04 21:21:00,11.4,3.8,29.89,South,191,2.0,7.0,71,0.00,,OVC080,0.00,VWS V14.01,2013-02-05 03:21:00,
2013-02-04 21:26:00,11.4,3.8,29.89,SW,224,1.0,7.0,71,0.00,,OVC080,0.00,VWS V14.01,2013-02-05 03:26:00,
2013-02-04 21:31:00,11.5,3.9,29.89,South,191,4.0,4.0,71,0.00,,OVC080,0.00,VWS V14.01,2013-02-05 03:31:00,
2013-02-04 21:36:00,11.5,3.9,29.89,SSW,205,2.0,4.0,71,0.00,,OVC055,0.00,VWS V14.01,2013-02-05 03:36:00,
2013-02-04 21:41:00,11.6,4.0,29.88,SSW,212,2.0,4.0,71,0.00,,OVC055,0.00,VWS V14.01,2013-02-05 03:41:00,
2013-02-04 21:46:00,11.7,4.4,29.88,SW,222,3.0,4.0,72,0.00,,OVC055,0.00,VWS V14.01,2013-02-05 03:46:00,
2013-02-04 21:51:00,11.7,4.4,29.88,SW,225,2.0,8.0,72,0.00,,OVC090,0.00,VWS V14.01,2013-02-05 03:51:00,
2013-02-04 21:56:00,11.8,4.5,29.88,SW,217,4.0,8.0,72,0.00,,OVC080,0.00,VWS V14.01,2013-02-05 03:56:00,
2013-02-04 22:01:00,11.8,4.5,29.87,South,180,2.0,4.0,72,0.00,,OVC090,0.00,VWS V14.01,2013-02-05 04:01:00,
2013-02-04 22:06:00,11.9,4.6,29.87,SSW,211,3.0,5.0,72,0.00,,OVC090,0.00,VWS V14.01,2013-02-05 04:06:00,
2013-02-04 22:11:00,11.9,4.6,29.86,SW,217,2.0,8.0,72,0.00,,OVC090,0.00,VWS V14.01,2013-02-05 04:11:00,
2013-02-04 22:16:00,12.0,4.7,29.85,South,181,3.0,8.0,72,0.00,,OVC080,0.00,VWS V14.01,2013-02-05 04:16:00,
2013-02-04 22:21:00,12.1,4.8,29.85,South,176,3.0,8.0,72,0.00,,OVC090,0.00,VWS V14.01,2013-02-05 04:21:00,
2013-02-04 22:26:00,12.1,5.1,29.85,South,187,3.0,8.0,73,0.00,,OVC090,0.00,VWS V14.01,2013-02-05 04:26:00,
2013-02-04 22:31:00,12.1,5.7,29.84,SSW,203,1.0,5.0,75,0.00,,OVC090,0.00,VWS V14.01,2013-02-05 04:31:00,
2013-02-04 22:36:00,12.0,6.2,29.84,South,191,4.0,8.0,77,0.00,,OVC055,0.00,VWS V14.01,2013-02-05 04:36:00,
2013-02-04 22:41:00,11.9,6.7,29.84,South,177,3.0,10.0,79,0.00,,OVC055,0.00,VWS V14.01,2013-02-05 04:41:00,
2013-02-04 22:46:00,11.8,7.1,29.83,South,181,4.0,10.0,81,0.00,,OVC055,0.00,VWS V14.01,2013-02-05 04:46:00,
2013-02-04 22:51:00,11.7,7.3,29.83,SSW,194,2.0,10.0,82,0.00,,OVC045,0.00,VWS V14.01,2013-02-05 04:51:00,
2013-02-04 22:56:00,11.7,7.6,29.82,SSE,156,6.0,10.0,83,0.00,,OVC090,0.00,VWS V14.01,2013-02-05 04:56:00,
2013-02-04 23:00:00,11.7,7.8,29.82,SSE,165,5.0,6.0,84,0.00,,OVC045,0.00,VWS V14.01,2013-02-05 05:00:00,
2013-02-04 23:05:00,11.7,7.8,29.81,South,191,5.0,9.0,84,0.00,,OVC090,0.00,VWS V14.01,2013-02-05 05:05:00,
2013-02-04 23:10:00,11.7,8.1,29.81,SSW,202,7.0,11.0,85,0.00,,OVC045,0.00,VWS V14.01,2013-02-05 05:10:00,
2013-02-04 23:15:00,11.7,8.1,29.80,SSE,166,7.0,11.0,85,0.00,,OVC045,0.00,VWS V14.01,2013-02-05 05:15:00,
2013-02-04 23:20:00,11.7,8.3,29.79,SSE,153,7.0,11.0,86,0.00,,OVC045,0.00,VWS V14.01,2013-02-05 05:20:00,
2013-02-04 23:25:00,11.7,8.3,29.79,SSW,200,4.0,11.0,86,0.00,,OVC045,0.00,VWS V14.01,2013-02-05 05:25:00,
2013-02-04 23:30:00,11.8,8.4,29.79,SSW,203,2.0,8.0,86,0.00,,OVC045,0.00,VWS V14.01,2013-02-05 05:30:00,
2013-02-04 23:35:00,11.8,8.7,29.78,SE,136,6.0,9.0,87,0.00,,,0.00,VWS V14.01,2013-02-05 05:35:00,
2013-02-04 23:40:00,11.9,8.8,29.78,SSW,200,5.0,9.0,87,0.00,,,0.00,VWS V14.01,2013-02-05 05:40:00,
2013-02-04 23:45:00,12.1,9.0,29.78,SSW,203,4.0,11.0,87,0.00,,,0.00,VWS V14.01,2013-02-05 05:45:00,
2013-02-04 23:50:00,12.2,9.1,29.77,South,177,5.0,11.0,87,0.00,,OVC044,0.00,VWS V14.01,2013-02-05 05:50:00,
2013-02-04 23:55:00,12.4,9.3,29.77,SSE,159,5.0,12.0,87,0.00,,OVC044,0.00,VWS V14.01,2013-02-05 05:55:00,